Airfield :
LOGIN :

Register | Disclaimer

   EN    FR    IT 

 










Legend :    VFR   Marginal VFR   IFR   Intensive IFR   Very Intensive IFR
Visi :
Ceiling :
>= 8 km
>= 3000ft
5 to 8 km
1000 to 3000 ft
1500m to 5 km
500 to 1000 ft
800 to 1500m
200 to 500 ft
< 800m
< 200 ft
Symbols :   Thunderstorms  Fog  Heavy snow  Heavy precipitations  Wind > 20 kt
SIGMETs :     Misc.  Thunderstorms  Icing  Turbulence  Mountain Waves  Volcanic Ashes







- Airport Elevation : 870 ft
- IATA code : ETZ
- Download approach charts


LFJL - Metz Nancy Lorraine

CURRENT METAR :
  • 210430Z AUTO 30006KT 9999 OVC023 03/01 Q1011 NOSIG

EXPIRED METARs :
  • 210400Z AUTO 31007KT 9999 SCT016 OVC022 03/01 Q1010 TEMPO 3000 -DZRA OVC007
  • 210330Z AUTO 31011KT 9999 SCT018 OVC026 03/01 Q1010 TEMPO 3000 -DZRA OVC007
  • 210300Z AUTO 31007KT 280V340 9999 OVC012 03/01 Q1009 TEMPO 3000 -DZRA OVC007
  • 210230Z AUTO 33009KT 9999 OVC011 03/02 Q1008 TEMPO 3000 -DZRA OVC007
  • 210200Z AUTO 32011KT 9999 OVC012 03/02 Q1008 TEMPO 3000 -DZRA OVC007

TAF TAF LFJL
Valid from the 21 at 00:00 until the 22 at 00:00 UTC


202300Z 2100/2124 32010KT 9999 OVC018
TEMPO 2100/2105 3000 -DZRA OVC007
TEMPO 2108/2113 BKN010
BECMG 2114/2116 15008KT
TEMPO 2115/2118 NSC
BECMG 2118/2120 -RA OVC012
PROB40
TEMPO 2120/2124 3000 OVC003
PROB30
TEMPO 2120/2122 1200 SNRA
No reported NOTAMs for that airfield.



MET'MAP, your aeronautical weather chart ! - Copyright ORBIFLY December 2007 - Disclaimer

ORBIFLY MET'MAP TEAM :

Programming & Development : Alexandra Zaïnal
Concept & Development : Baudouin d'Aumeries
Co-Development & Prog : Marc-Olivier Méhu
Technical & hardware support : Manuel Goepfert

Contact : metmap@orbifly.com




SOURCES & CREDITS :

   NOAA